Date,TemperatureHighF,TemperatureAvgF,TemperatureLowF,DewpointHighF,DewpointAvgF,DewpointLowF,HumidityHigh,HumidityAvg,HumidityLow,PressureMaxIn,PressureMinIn,WindSpeedMaxMPH,WindSpeedAvgMPH,GustSpeedMaxMPH,PrecipitationSumIn
2013-3-1,55.2,42.5,30.7,26.0,16.1,-1.5,76,41,10,30.04,29.91,14,1,21,0.00
2013-3-2,53.8,40.0,28.9,16.3,6.6,-7.9,57,29,10,30.16,30.01,12,1,20,0.00
2013-3-3,68.2,47.6,25.0,25.6,14.0,-1.2,76,35,10,30.03,29.62,11,1,15,0.00
2013-3-4,81.9,62.6,47.8,45.9,33.6,18.8,67,39,10,29.63,29.37,16,2,23,0.01
2013-3-5,59.0,50.5,37.0,43.8,15.8,-4.1,64,30,10,30.10,29.49,17,5,26,0.06
2013-3-6,67.6,47.9,32.4,22.9,9.8,-4.7,55,26,10,30.21,30.00,7,0,11,0.00
2013-3-7,68.5,52.3,37.6,25.7,17.0,5.3,59,29,10,30.11,29.93,9,0,16,0.00
2013-3-8,64.8,55.9,43.2,29.0,24.1,14.3,55,31,15,30.06,29.84,8,0,14,0.00
2013-3-9,68.4,62.6,55.6,55.7,45.2,26.7,80,54,28,29.84,29.51,13,3,23,0.04
2013-3-10,60.6,52.3,41.5,58.1,40.8,21.6,100,68,33,29.81,29.47,21,6,25,0.89
2013-3-11,57.9,43.5,32.5,23.5,16.4,-1.6,67,39,10,29.85,29.75,15,4,21,0.00
2013-3-12,73.9,50.7,29.1,33.4,19.1,4.6,84,41,10,30.08,29.84,6,0,8,0.00
2013-3-13,47.7,44.3,39.9,32.0,30.5,29.5,67,58,51,30.13,30.08,0,0,1,0.00
2013-3-14,78.1,55.9,33.6,37.3,23.8,11.5,78,39,10,30.17,29.94,11,2,14,0.00
2013-3-15,82.4,63.1,41.4,46.2,35.6,19.1,87,45,10,29.95,29.67,11,3,18,0.00
2013-3-16,83.7,67.6,46.6,48.7,41.5,33.5,80,43,17,29.68,29.50,9,2,17,0.00
2013-3-17,77.7,67.3,55.9,57.4,51.6,44.5,73,58,40,29.56,29.40,9,2,14,0.00
2013-3-18,72.0,55.2,46.0,52.3,34.8,26.3,88,48,20,29.81,29.44,8,0,14,0.05
2013-3-19,68.5,52.7,36.5,42.3,24.1,6.4,85,43,10,29.94,29.78,11,0,18,0.00
2013-3-20,70.2,55.3,36.0,28.7,15.4,2.4,59,25,10,30.10,29.85,10,0,17,0.00
2013-3-21,49.3,44.3,40.3,34.8,24.5,3.8,80,48,17,29.85,29.52,14,2,20,0.13
2013-3-22,47.7,44.1,40.3,45.6,41.4,34.6,95,90,80,29.65,29.50,10,0,17,0.04
2013-3-23,50.0,47.1,44.4,49.5,45.6,41.2,100,95,86,29.67,29.45,8,0,14,0.18
2013-3-24,50.4,44.0,36.7,49.6,26.7,13.3,100,54,23,29.92,29.49,20,8,33,0.50
2013-3-25,53.6,40.9,30.2,18.9,7.5,-7.9,57,30,10,30.17,29.92,17,4,24,0.05
2013-3-26,35.2,33.1,30.4,16.1,12.7,10.6,52,43,37,30.17,30.16,0,0,1,0.00
2013-3-27,69.6,61.2,27.9,24.0,10.0,1.0,74,15,10,30.16,29.92,11,2,16,0.00
2013-3-28,77.0,60.6,43.9,46.2,33.5,17.6,51,37,23,30.06,29.89,8,1,13,0.00
2013-3-29,74.1,65.7,60.3,59.2,51.4,45.4,91,61,41,29.97,29.83,8,1,14,0.02
2013-3-30,71.8,62.5,58.3,65.7,59.2,57.2,100,90,65,29.86,29.68,12,0,18,0.52
2013-3-31,83.1,64.3,52.9,65.4,53.2,33.2,100,74,20,29.75,29.62,16,0,23,1.09